Time;durP1;ratioP1;P1;durP2;ratioP2;P2;SDS_P1;SDS_P2;PMS_P1;PMS_P2;Temp;Humidity;BMP_temperature;BMP_pressure;BME280_temperature;BME280_humidity;BME280_pressure;Samples;Min_cycle;Max_cycle;Signal;HPM_P1;HPM_P2
2024/02/03 00:01:06;;;;;;;9.82;6.95;;;;;;;8.13;100.00;101594.09;5031183;28;20033;-80
2024/02/03 00:03:35;;;;;;;10.57;6.97;;;;;;;8.06;100.00;101574.00;5040031;28;20128;-80
2024/02/03 00:06:04;;;;;;;10.95;7.60;;;;;;;8.15;100.00;101596.72;5045237;28;20042;-79
2024/02/03 00:08:33;;;;;;;10.95;7.85;;;;;;;8.02;100.00;101582.88;5026272;28;20050;-80
2024/02/03 00:11:07;;;;;;;10.27;7.30;;;;;;;7.05;100.00;101435.16;5033589;28;20516;-80
2024/02/03 00:13:38;;;;;;;11.05;7.47;;;;;;;7.84;100.00;101559.47;5027769;28;21392;-79
2024/02/03 00:16:07;;;;;;;14.88;8.52;;;;;;;8.07;100.00;101588.94;5029915;28;20060;-81
2024/02/03 00:18:35;;;;;;;12.32;8.38;;;;;;;8.14;100.00;101602.91;5034417;28;20567;-79
2024/02/03 00:21:04;;;;;;;12.10;8.27;;;;;;;7.92;100.00;101579.50;5019468;28;20072;-82
2024/02/03 00:23:35;;;;;;;12.20;8.25;;;;;;;8.04;100.00;101600.41;5032193;28;20045;-80
2024/02/03 00:26:03;;;;;;;10.30;7.45;;;;;;;7.70;100.00;101538.59;5014364;28;20037;-80
2024/02/03 00:28:32;;;;;;;12.85;8.23;;;;;;;8.06;100.00;101603.00;5035311;28;20049;-79
2024/02/03 00:31:02;;;;;;;13.02;8.18;;;;;;;8.03;100.00;101588.09;5022209;28;20045;-81
2024/02/03 00:33:31;;;;;;;11.15;8.20;;;;;;;7.31;100.00;101447.88;5033154;28;20807;-80
2024/02/03 00:35:59;;;;;;;12.93;8.60;;;;;;;8.10;100.00;101595.03;5027789;28;20144;-79
2024/02/03 00:38:27;;;;;;;12.85;8.07;;;;;;;7.89;100.00;101566.38;5030353;28;20077;-80
2024/02/03 00:40:55;;;;;;;12.80;8.60;;;;;;;8.05;100.00;101596.88;5038958;28;20050;-78
2024/02/03 00:43:23;;;;;;;13.38;8.18;;;;;;;7.91;100.00;101585.69;5029569;28;20484;-80
2024/02/03 00:45:52;;;;;;;11.10;8.10;;;;;;;8.04;100.00;101604.81;5032275;28;20106;-80
2024/02/03 00:48:22;;;;;;;12.90;8.38;;;;;;;7.82;100.00;101580.59;5026991;28;20513;-79
2024/02/03 00:50:51;;;;;;;13.80;9.13;;;;;;;8.02;100.00;101601.34;5030476;28;20433;-79
2024/02/03 00:53:19;;;;;;;13.75;8.80;;;;;;;7.96;100.00;101604.94;5038036;28;20042;-79
2024/02/03 00:55:47;;;;;;;14.00;8.18;;;;;;;7.92;100.00;101600.63;5015208;28;20108;-80
2024/02/03 00:58:15;;;;;;;13.45;9.25;;;;;;;7.93;100.00;101607.63;5030766;28;20073;-79
2024/02/03 01:00:43;;;;;;;14.35;9.57;;;;;;;7.57;100.00;101530.00;5031396;28;20061;-80
2024/02/03 01:03:11;;;;;;;13.93;9.68;;;;;;;7.21;100.00;101470.88;5017805;28;20095;-80
2024/02/03 01:05:41;;;;;;;15.00;9.60;;;;;;;7.40;100.00;101505.69;5011398;28;20120;-81
2024/02/03 01:08:10;;;;;;;14.98;10.05;;;;;;;6.52;100.00;101381.53;5035276;28;20502;-79
2024/02/03 01:10:38;;;;;;;15.20;10.23;;;;;;;8.00;100.00;101614.56;5029616;28;20073;-83
2024/02/03 01:13:06;;;;;;;17.77;10.00;;;;;;;7.71;100.00;101575.47;5051543;28;20052;-80
2024/02/03 01:15:34;;;;;;;13.85;9.95;;;;;;;7.32;100.00;101494.41;5030017;28;20034;-79
2024/02/03 01:18:04;;;;;;;16.13;10.15;;;;;;;7.91;100.00;101582.19;5034709;28;20049;-80
2024/02/03 01:20:34;;;;;;;16.00;10.73;;;;;;;8.06;100.00;101611.81;5027528;28;20050;-79
2024/02/03 01:23:10;;;;;;;15.38;10.23;;;;;;;6.60;100.00;101363.03;5020393;28;20480;-80
2024/02/03 01:25:38;;;;;;;18.45;10.40;;;;;;;8.14;100.00;101616.09;5029341;28;20042;-79
2024/02/03 01:28:08;;;;;;;15.52;10.15;;;;;;;8.09;100.00;101610.88;5035316;28;20057;-78
2024/02/03 01:30:36;;;;;;;14.95;10.65;;;;;;;8.02;100.00;101604.00;5032860;28;20524;-78
2024/02/03 01:33:05;;;;;;;13.80;10.05;;;;;;;7.86;100.00;101594.59;5032764;28;20113;-81
2024/02/03 01:35:33;;;;;;;15.45;9.55;;;;;;;7.09;100.00;101459.66;5034134;28;20080;-79
2024/02/03 01:38:01;;;;;;;16.38;10.25;;;;;;;7.34;100.00;101509.31;5035686;28;20041;-79
2024/02/03 01:40:31;;;;;;;13.98;9.57;;;;;;;7.11;100.00;101464.00;5035848;28;20046;-79
2024/02/03 01:43:01;;;;;;;13.40;8.88;;;;;;;7.91;100.00;101619.97;5019406;28;20049;-77
2024/02/03 01:45:30;;;;;;;13.80;9.65;;;;;;;7.94;100.00;101624.34;5027392;28;20057;-79
2024/02/03 01:47:59;;;;;;;15.00;9.80;;;;;;;7.93;100.00;101627.88;5035601;28;20639;-79
2024/02/03 01:50:28;;;;;;;14.27;8.63;;;;;;;7.94;100.00;101625.19;5008784;28;20060;-79
2024/02/03 01:52:56;;;;;;;15.45;9.18;;;;;;;7.97;100.00;101624.28;5019512;28;20121;-79
2024/02/03 01:55:25;;;;;;;12.30;9.35;;;;;;;7.69;100.00;101581.69;5034008;28;20042;-80
2024/02/03 01:57:54;;;;;;;13.77;9.02;;;;;;;7.74;100.00;101588.59;5032134;28;20038;-80
2024/02/03 02:00:22;;;;;;;17.23;9.43;;;;;;;7.93;100.00;101625.22;5020907;28;20144;-79
2024/02/03 02:02:50;;;;;;;14.70;9.88;;;;;;;7.90;100.00;101620.00;5034536;28;20050;-79
2024/02/03 02:05:18;;;;;;;13.70;8.82;;;;;;;7.89;100.00;101626.16;5040513;28;20049;-80
2024/02/03 02:07:47;;;;;;;13.27;9.23;;;;;;;7.89;100.00;101621.75;5031763;28;20038;-80
2024/02/03 02:10:16;;;;;;;13.55;8.75;;;;;;;7.91;100.00;101617.34;5031159;28;20038;-79
2024/02/03 02:12:44;;;;;;;16.15;9.38;;;;;;;7.66;100.00;101581.72;5032759;28;20060;-81
2024/02/03 02:15:15;;;;;;;14.60;9.57;;;;;;;7.91;100.00;101619.09;5031090;28;20049;-80
2024/02/03 02:17:42;;;;;;;12.98;8.68;;;;;;;7.91;100.00;101619.97;5022205;28;20211;-80
2024/02/03 02:20:13;;;;;;;14.27;9.02;;;;;;;7.42;100.00;101522.34;5034256;28;20577;-82
2024/02/03 02:22:41;;;;;;;15.40;8.98;;;;;;;7.28;100.00;101488.31;5028572;28;20042;-80
2024/02/03 02:25:09;;;;;;;13.38;9.10;;;;;;;7.99;100.00;101615.47;5033061;28;20564;-78
2024/02/03 02:27:38;;;;;;;13.73;8.38;;;;;;;7.96;100.00;101610.22;5030433;28;20497;-78
2024/02/03 02:30:10;;;;;;;12.90;8.02;;;;;;;7.91;100.00;101588.31;5055285;28;20046;-79
2024/02/03 02:32:38;;;;;;;13.68;8.52;;;;;;;7.81;100.00;101570.94;5036740;28;20041;-82
2024/02/03 02:35:06;;;;;;;15.35;8.93;;;;;;;7.96;100.00;101590.91;5012429;28;20068;-80
2024/02/03 02:37:36;;;;;;;13.48;8.60;;;;;;;8.04;100.00;101608.31;5030602;28;20056;-79
2024/02/03 02:40:04;;;;;;;13.45;9.10;;;;;;;7.67;100.00;101547.44;5007284;28;20060;-81
2024/02/03 02:42:32;;;;;;;13.50;8.48;;;;;;;8.07;100.00;101603.00;5027936;28;20042;-80
2024/02/03 02:45:00;;;;;;;12.70;8.50;;;;;;;6.83;100.00;101392.47;5035389;28;20049;-81
2024/02/03 02:47:29;;;;;;;14.65;9.27;;;;;;;7.56;100.00;101533.53;5032853;28;20049;-79
2024/02/03 02:49:57;;;;;;;12.38;8.98;;;;;;;7.97;100.00;101604.06;5037007;28;20050;-80
2024/02/03 02:52:25;;;;;;;13.48;8.93;;;;;;;7.56;100.00;101549.34;5030049;28;20064;-78
2024/02/03 02:54:56;;;;;;;13.38;8.45;;;;;;;7.84;100.00;101618.34;5035270;28;20045;-81
2024/02/03 02:57:24;;;;;;;12.13;8.32;;;;;;;7.81;100.00;101605.22;5031626;28;20037;-79
2024/02/03 02:59:53;;;;;;;13.30;8.65;;;;;;;7.55;100.00;101574.00;5016563;28;20038;-79
2024/02/03 03:02:21;;;;;;;12.70;8.63;;;;;;;7.82;100.00;101600.81;5017965;28;20516;-80
2024/02/03 03:04:49;;;;;;;12.38;8.68;;;;;;;7.78;100.00;101597.34;5044290;28;21943;-78
2024/02/03 03:07:17;;;;;;;12.35;8.38;;;;;;;7.89;100.00;101600.66;5048062;28;20099;-79
2024/02/03 03:09:45;;;;;;;13.85;8.63;;;;;;;7.02;100.00;101448.38;5032885;28;20049;-79
2024/02/03 03:12:14;;;;;;;11.48;7.95;;;;;;;7.95;100.00;101605.84;5033350;28;20061;-80
2024/02/03 03:14:43;;;;;;;12.02;7.85;;;;;;;7.94;100.00;101603.22;5024200;28;20033;-79
2024/02/03 03:17:11;;;;;;;12.63;8.07;;;;;;;7.80;100.00;101595.56;5017777;28;20048;-79
2024/02/03 03:19:39;;;;;;;11.75;7.78;;;;;;;7.76;100.00;101604.41;5016308;28;20099;-79
2024/02/03 03:22:08;;;;;;;12.82;8.40;;;;;;;7.63;100.00;101582.66;5040452;28;20106;-78
2024/02/03 03:24:36;;;;;;;11.63;8.30;;;;;;;7.73;100.00;101602.69;5050768;28;20088;-79
2024/02/03 03:27:04;;;;;;;11.70;7.85;;;;;;;7.79;100.00;101598.22;5029594;28;20044;-79
2024/02/03 03:29:33;;;;;;;11.38;7.68;;;;;;;7.80;100.00;101613.13;5040239;28;20048;-78
2024/02/03 03:32:01;;;;;;;12.45;7.72;;;;;;;7.33;100.00;101556.75;5033965;28;20170;-79
2024/02/03 03:34:31;;;;;;;11.80;7.63;;;;;;;7.67;100.00;101609.84;5033142;28;20053;-79
2024/02/03 03:36:59;;;;;;;12.95;8.18;;;;;;;7.46;100.00;101578.53;5032701;28;20547;-79
2024/02/03 03:39:27;;;;;;;12.77;8.32;;;;;;;7.50;100.00;101596.03;5002633;28;20049;-79
2024/02/03 03:41:55;;;;;;;13.18;7.43;;;;;;;7.42;100.00;101567.16;5022684;28;20059;-79
2024/02/03 03:44:25;;;;;;;11.35;7.85;;;;;;;7.35;100.00;101552.34;5041338;28;20037;-79
2024/02/03 03:46:56;;;;;;;11.90;8.02;;;;;;;7.64;100.00;101604.59;5019365;28;20047;-79
2024/02/03 03:49:25;;;;;;;11.45;7.55;;;;;;;7.70;100.00;101604.53;5022207;28;20053;-79
2024/02/03 03:51:53;;;;;;;10.27;7.25;;;;;;;7.77;100.00;101603.50;5025576;28;20045;-80
2024/02/03 03:54:21;;;;;;;10.77;7.68;;;;;;;7.01;100.00;101476.47;5058190;28;20061;-80
2024/02/03 03:56:49;;;;;;;13.23;7.63;;;;;;;7.61;100.00;101580.91;5022031;28;20061;-78
2024/02/03 03:59:18;;;;;;;10.82;7.78;;;;;;;7.78;100.00;101601.75;5018032;28;20505;-79
2024/02/03 04:01:48;;;;;;;10.32;6.95;;;;;;;7.78;100.00;101599.09;5037275;28;20037;-81
2024/02/03 04:04:22;;;;;;;12.82;8.00;;;;;;;7.58;100.00;101579.19;5008480;28;20040;-79
2024/02/03 04:06:49;;;;;;;11.57;7.40;;;;;;;7.56;100.00;101583.63;5035422;28;20045;-79
2024/02/03 04:09:20;;;;;;;10.90;7.65;;;;;;;7.64;100.00;101601.97;5051378;28;20051;-80
2024/02/03 04:11:48;;;;;;;12.82;7.63;;;;;;;7.66;100.00;101598.41;5028048;28;20049;-79
2024/02/03 04:14:16;;;;;;;11.43;8.18;;;;;;;7.58;100.00;101591.50;5039097;28;20044;-80
2024/02/03 04:16:44;;;;;;;11.50;8.25;;;;;;;7.58;100.00;101616.09;5030779;28;20053;-79
2024/02/03 04:19:12;;;;;;;12.73;7.68;;;;;;;7.54;100.00;101610.94;5039680;28;20091;-79
2024/02/03 04:21:42;;;;;;;11.73;7.43;;;;;;;7.61;100.00;101617.81;5035476;28;20041;-80
2024/02/03 04:24:10;;;;;;;12.55;7.45;;;;;;;7.63;100.00;101608.13;5032074;28;20032;-79
2024/02/03 04:26:38;;;;;;;8.85;7.00;;;;;;;7.62;100.00;101601.13;5026632;28;20045;-81
2024/02/03 04:29:06;;;;;;;12.25;7.85;;;;;;;7.66;100.00;101602.81;5029907;28;20045;-80
2024/02/03 04:31:34;;;;;;;12.07;8.05;;;;;;;7.67;100.00;101610.72;5040805;28;20041;-80
2024/02/03 04:34:04;;;;;;;10.88;7.50;;;;;;;7.71;100.00;101595.72;5037902;28;20040;-81
2024/02/03 04:36:32;;;;;;;11.07;7.10;;;;;;;7.54;100.00;101571.38;5020613;28;20079;-79
2024/02/03 04:39:01;;;;;;;10.65;7.47;;;;;;;7.70;100.00;101596.59;5034860;28;20037;-80
2024/02/03 04:41:29;;;;;;;13.27;7.70;;;;;;;7.39;100.00;101560.19;5032352;28;20094;-80
2024/02/03 04:43:57;;;;;;;11.00;7.45;;;;;;;7.53;100.00;101588.09;5014221;28;20951;-79
2024/02/03 04:46:25;;;;;;;11.23;7.93;;;;;;;7.62;100.00;101603.75;5030406;28;20552;-81
2024/02/03 04:48:54;;;;;;;13.90;8.45;;;;;;;7.36;100.00;101560.22;5047727;28;20029;-79
2024/02/03 04:51:25;;;;;;;12.40;7.57;;;;;;;7.51;100.00;101579.34;5037019;28;20452;-79
2024/02/03 04:53:54;;;;;;;10.40;7.00;;;;;;;6.54;100.00;101407.84;5036445;28;20190;-78
2024/02/03 04:56:25;;;;;;;10.05;6.82;;;;;;;7.53;100.00;101577.56;5036511;28;20041;-79
2024/02/03 04:58:54;;;;;;;9.65;7.18;;;;;;;7.56;100.00;101577.47;5034565;28;20040;-78
2024/02/03 05:01:21;;;;;;;9.38;6.90;;;;;;;7.25;100.00;101532.28;5015761;28;20079;-78
2024/02/03 05:03:49;;;;;;;12.57;7.38;;;;;;;7.64;100.00;101586.16;5035731;28;20041;-79
2024/02/03 05:06:21;;;;;;;10.07;6.78;;;;;;;7.60;100.00;101560.72;5018586;28;20478;-79
2024/02/03 05:08:54;;;;;;;8.95;6.80;;;;;;;7.65;100.00;101574.72;5038856;28;20045;-80
2024/02/03 05:11:23;;;;;;;11.38;7.22;;;;;;;7.66;100.00;101576.47;5023348;28;20041;-79
2024/02/03 05:13:52;;;;;;;9.33;6.80;;;;;;;6.98;100.00;101465.97;5022990;28;20049;-79
2024/02/03 05:16:21;;;;;;;9.85;7.03;;;;;;;6.89;100.00;101439.78;4997742;28;20033;-79
2024/02/03 05:18:50;;;;;;;11.13;6.53;;;;;;;7.59;100.00;101562.50;5048312;28;20065;-80
2024/02/03 05:21:18;;;;;;;8.10;6.38;;;;;;;7.66;100.00;101579.09;5038180;28;21422;-78
2024/02/03 05:23:47;;;;;;;8.63;6.15;;;;;;;7.62;100.00;101601.13;5019133;28;20049;-79
2024/02/03 05:26:15;;;;;;;7.95;6.07;;;;;;;7.62;100.00;101580.91;5043325;28;20215;-80
2024/02/03 05:28:45;;;;;;;9.57;5.63;;;;;;;7.31;100.00;101516.38;5039003;28;20046;-80
2024/02/03 05:31:20;;;;;;;8.65;5.35;;;;;;;7.69;100.00;101565.88;5025796;28;20463;-79
2024/02/03 05:33:49;;;;;;;8.20;5.30;;;;;;;7.67;100.00;101567.66;5026643;28;20052;-79
2024/02/03 05:36:17;;;;;;;7.32;5.22;;;;;;;7.63;100.00;101561.56;5034342;28;20055;-79
2024/02/03 05:38:45;;;;;;;6.30;4.78;;;;;;;7.64;100.00;101557.16;5008171;28;20542;-79
2024/02/03 05:41:13;;;;;;;6.65;4.38;;;;;;;7.56;100.00;101532.66;5041788;28;20045;-79
2024/02/03 05:43:41;;;;;;;6.28;4.43;;;;;;;7.65;100.00;101548.34;5064518;28;20040;-79
2024/02/03 05:46:10;;;;;;;6.28;4.07;;;;;;;7.12;100.00;101467.50;5053767;28;20042;-79
2024/02/03 05:48:38;;;;;;;5.00;3.80;;;;;;;7.63;100.00;101545.72;5033804;28;20041;-80
2024/02/03 05:51:07;;;;;;;4.90;3.70;;;;;;;7.46;100.00;101510.88;5041458;28;20045;-80
2024/02/03 05:53:36;;;;;;;5.70;3.67;;;;;;;6.95;100.00;101421.25;5049460;28;20072;-80
2024/02/03 05:56:05;;;;;;;5.18;3.00;;;;;;;7.72;100.00;101547.34;5033107;28;20034;-80
2024/02/03 05:58:34;;;;;;;4.63;3.05;;;;;;;7.74;100.00;101546.41;5013237;28;20057;-79
2024/02/03 06:01:02;;;;;;;4.38;3.30;;;;;;;7.59;100.00;101524.72;5041110;28;20078;-79
2024/02/03 06:03:32;;;;;;;3.67;2.58;;;;;;;7.70;100.00;101547.38;5025913;28;20501;-80
2024/02/03 06:06:01;;;;;;;4.60;2.67;;;;;;;7.72;100.00;101547.34;5056299;28;20396;-79
2024/02/03 06:08:50;;;;;;;3.97;2.30;;;;;;;6.93;100.00;101415.13;5036208;28;20109;-79
2024/02/03 06:11:19;;;;;;;4.43;2.70;;;;;;;7.44;100.00;101493.34;5046884;28;20044;-78
2024/02/03 06:13:50;;;;;;;3.47;2.33;;;;;;;7.75;100.00;101542.00;5039940;28;20045;-79
2024/02/03 06:16:19;;;;;;;2.72;2.40;;;;;;;7.62;100.00;101533.44;5042272;28;20106;-81
2024/02/03 06:18:49;;;;;;;2.85;2.13;;;;;;;7.14;100.00;101465.72;5026769;28;20052;-79
2024/02/03 06:21:19;;;;;;;4.28;2.47;;;;;;;7.65;100.00;101556.25;5032930;28;20049;-79
2024/02/03 06:23:47;;;;;;;3.53;2.20;;;;;;;7.24;100.00;101488.41;5051535;28;20037;-79
2024/02/03 06:26:17;;;;;;;3.50;2.35;;;;;;;6.52;100.00;101370.16;5035611;28;20045;-79
2024/02/03 06:28:45;;;;;;;3.38;2.38;;;;;;;7.32;100.00;101490.03;5038436;28;20069;-81
2024/02/03 06:31:13;;;;;;;3.90;2.47;;;;;;;6.90;100.00;101425.72;5042507;28;20071;-79
2024/02/03 06:33:41;;;;;;;3.08;2.30;;;;;;;7.55;100.00;101558.19;5057830;28;20052;-81
2024/02/03 06:36:12;;;;;;;2.78;2.10;;;;;;;6.90;100.00;101420.47;5026967;28;20040;-79
2024/02/03 06:38:39;;;;;;;;;;;;;;;7.71;100.00;101554.38;5032997;28;20040;-78
2024/02/03 06:41:14;;;;;;;3.42;2.17;;;;;;;7.77;100.00;101557.81;5036810;28;19955;-79
2024/02/03 06:43:43;;;;;;;3.60;2.80;;;;;;;7.41;100.00;101486.34;5039800;28;20137;-80
2024/02/03 06:46:13;;;;;;;4.00;2.70;;;;;;;7.85;100.00;101546.25;5038440;28;20045;-81
2024/02/03 06:48:41;;;;;;;3.70;2.42;;;;;;;6.80;100.00;101373.22;5033626;28;20046;-79
2024/02/03 06:51:11;;;;;;;4.13;2.75;;;;;;;7.62;100.00;101509.72;5020022;28;20409;-78
2024/02/03 06:53:39;;;;;;;3.63;2.60;;;;;;;7.88;100.00;101535.63;5043722;28;20045;-80
2024/02/03 06:56:10;;;;;;;3.47;2.30;;;;;;;7.90;100.00;101539.09;5050072;28;20048;-79
2024/02/03 06:58:38;;;;;;;3.72;2.72;;;;;;;7.95;100.00;101542.53;5028523;28;20041;-80
2024/02/03 07:01:06;;;;;;;3.15;2.67;;;;;;;7.98;100.00;101539.00;5035755;28;20045;-80
2024/02/03 07:03:35;;;;;;;4.28;2.58;;;;;;;7.99;100.00;101536.31;5034389;28;20537;-83
2024/02/03 07:06:03;;;;;;;4.18;3.00;;;;;;;7.97;100.00;101530.19;5051678;28;20048;-78
2024/02/03 07:08:33;;;;;;;4.00;3.33;;;;;;;8.04;100.00;101544.13;5047723;28;20132;-78
2024/02/03 07:11:01;;;;;;;3.35;2.80;;;;;;;8.04;100.00;101536.22;5034217;28;20037;-79
2024/02/03 07:13:31;;;;;;;3.22;2.92;;;;;;;7.72;100.00;101490.19;5024273;28;20471;-79
2024/02/03 07:16:00;;;;;;;3.38;2.67;;;;;;;8.03;100.00;101532.72;5038766;28;20140;-78
2024/02/03 07:18:31;;;;;;;2.65;2.42;;;;;;;8.07;100.00;101523.84;5027793;28;20489;-79
2024/02/03 07:20:59;;;;;;;4.57;2.88;;;;;;;8.08;100.00;101530.88;5041348;28;20060;-80
2024/02/03 07:23:27;;;;;;;4.07;2.72;;;;;;;8.16;100.00;101532.50;5026710;28;20126;-79
2024/02/03 07:25:58;;;;;;;3.78;3.08;;;;;;;8.15;100.00;101538.69;5028594;28;20517;-79
2024/02/03 07:28:27;;;;;;;5.80;3.58;;;;;;;7.69;100.00;101473.59;5048944;28;20156;-79
2024/02/03 07:30:55;;;;;;;3.45;2.95;;;;;;;7.87;100.00;101491.69;5019738;28;20060;-79
2024/02/03 07:33:23;;;;;;;4.53;3.28;;;;;;;7.14;100.00;101349.84;5024948;28;20103;-79
2024/02/03 07:35:52;;;;;;;2.83;2.58;;;;;;;8.08;100.00;101501.84;5038403;28;20460;-81
2024/02/03 07:38:20;;;;;;;3.55;2.60;;;;;;;7.84;100.00;101441.66;5035437;28;20041;-78
2024/02/03 07:40:49;;;;;;;3.05;2.50;;;;;;;8.01;100.00;101479.13;5021160;28;20099;-79
2024/02/03 07:43:19;;;;;;;3.08;2.30;;;;;;;8.21;100.00;101501.59;5036934;28;20509;-78
2024/02/03 07:45:49;;;;;;;4.45;2.40;;;;;;;8.00;100.00;101463.34;5024057;28;20962;-78
2024/02/03 07:48:18;;;;;;;3.03;2.47;;;;;;;8.41;100.00;101516.19;4995828;28;20238;-80
2024/02/03 07:50:49;;;;;;;3.15;2.60;;;;;;;8.42;100.00;101509.13;5030627;28;20492;-79
2024/02/03 07:53:20;;;;;;;3.25;2.30;;;;;;;8.38;100.00;101518.00;5043226;28;20072;-79
2024/02/03 07:55:48;;;;;;;2.83;2.00;;;;;;;8.29;100.00;101497.94;5013203;28;20048;-80
2024/02/03 07:58:19;;;;;;;3.83;1.90;;;;;;;8.18;100.00;101478.81;5004723;28;20046;-79
2024/02/03 08:00:47;;;;;;;3.85;2.30;;;;;;;8.48;100.00;101514.31;5033080;28;20052;-78
2024/02/03 08:03:15;;;;;;;3.13;2.20;;;;;;;8.48;100.00;101511.66;5000958;28;20044;-79
2024/02/03 08:05:43;;;;;;;4.88;2.25;;;;;;;8.07;100.00;101463.19;5021288;28;20042;-79
2024/02/03 08:08:14;;;;;;;3.28;2.58;;;;;;;8.40;100.00;101521.50;5027669;28;20101;-82
2024/02/03 08:10:42;;;;;;;2.78;2.40;;;;;;;8.29;100.00;101507.63;5030253;28;20124;-79
2024/02/03 08:13:17;;;;;;;2.58;2.28;;;;;;;7.70;100.00;101396.25;5049501;28;20045;-80
2024/02/03 08:15:47;;;;;;;2.78;2.47;;;;;;;7.65;100.00;101364.69;5029379;28;20094;-79
2024/02/03 08:18:16;;;;;;;3.47;2.50;;;;;;;8.44;100.00;101483.59;5027855;28;20102;-81
2024/02/03 08:20:47;;;;;;;3.15;2.67;;;;;;;8.44;100.00;101465.09;5025767;28;20068;-79
2024/02/03 08:23:20;;;;;;;3.13;2.38;;;;;;;8.75;100.00;101521.63;5029001;28;20037;-79
2024/02/03 08:25:50;;;;;;;2.78;2.47;;;;;;;8.35;100.00;101471.44;5032865;28;20045;-80
2024/02/03 08:28:30;;;;;;;3.50;2.75;;;;;;;7.13;100.00;101262.03;4988002;28;20048;-78
2024/02/03 08:30:59;;;;;;;3.33;2.80;;;;;;;7.82;100.00;101348.53;5046505;28;20051;-80
2024/02/03 08:33:28;;;;;;;2.63;2.33;;;;;;;8.78;100.00;101505.72;5031421;28;20059;-78
2024/02/03 08:35:57;;;;;;;5.13;2.78;;;;;;;8.77;100.00;101509.28;5029717;28;20076;-81
2024/02/03 08:38:25;;;;;;;2.92;2.55;;;;;;;8.74;100.00;101503.19;4999283;28;20064;-79
2024/02/03 08:40:53;;;;;;;4.03;2.80;;;;;;;8.63;100.00;101482.28;5023587;28;20137;-80
2024/02/03 08:43:22;;;;;;;4.25;2.78;;;;;;;8.34;100.00;101445.09;5023602;28;20403;-80
2024/02/03 08:45:51;;;;;;;2.92;2.63;;;;;;;8.82;100.00;101495.94;5034949;28;20068;-80
2024/02/03 08:48:20;;;;;;;2.22;2.03;;;;;;;8.82;100.00;101490.66;5008516;28;20045;-82
2024/02/03 09:30:23;;;;;;;3.42;2.13;;;;;;;9.02;100.00;101492.84;5020470;28;20634;-80
2024/02/03 09:32:53;;;;;;;2.72;1.88;;;;;;;8.96;100.00;101466.59;4971092;28;20046;-78
2024/02/03 09:35:21;;;;;;;2.75;1.80;;;;;;;9.05;100.00;101480.44;4986520;28;20067;-78
2024/02/03 09:37:50;;;;;;;1.83;1.67;;;;;;;9.14;100.00;101482.00;4989601;28;20129;-78
2024/02/03 09:40:21;;;;;;;2.30;1.58;;;;;;;9.21;100.00;101488.00;4963285;28;20430;-79
2024/02/03 09:42:50;;;;;;;2.75;1.70;;;;;;;9.08;100.00;101461.88;4973960;28;20078;-78
2024/02/03 09:45:22;;;;;;;2.42;1.45;;;;;;;9.15;100.00;101458.19;4998736;28;20043;-79
2024/02/03 09:47:50;;;;;;;1.20;1.10;;;;;;;9.14;100.00;101459.06;4987109;28;20423;-80
2024/02/03 09:50:19;;;;;;;1.70;0.73;;;;;;;9.24;100.00;101493.22;4977511;28;20047;-79
2024/02/03 09:52:47;;;;;;;0.82;0.73;;;;;;;9.24;100.00;101498.53;4988620;28;20038;-81
2024/02/03 09:55:18;;;;;;;2.00;1.25;;;;;;;9.23;100.00;101502.06;5003757;28;20057;-80
2024/02/03 09:57:47;;;;;;;0.88;0.88;;;;;;;9.26;100.00;101504.66;4969465;28;20043;-81
2024/02/03 10:00:20;;;;;;;0.80;0.80;;;;;;;9.37;100.00;101506.13;4958183;28;20515;-79
2024/02/03 10:02:50;;;;;;;2.65;0.70;;;;;;;9.49;100.00;101511.09;5002967;28;20050;-81
2024/02/03 10:05:26;;;;;;;1.67;0.90;;;;;;;9.53;100.00;101506.59;4979623;28;20079;-81
2024/02/03 10:08:02;;;;;;;1.20;0.90;;;;;;;9.46;100.00;101521.72;4980321;28;20516;-79
2024/02/03 10:10:32;;;;;;;0.88;0.88;;;;;;;9.37;100.00;101513.16;4978142;28;20058;-81
2024/02/03 10:13:04;;;;;;;1.80;1.08;;;;;;;9.47;100.00;101515.53;4985927;28;20047;-80
2024/02/03 10:15:32;;;;;;;2.63;0.90;;;;;;;9.27;100.00;101456.16;4970232;28;20977;-78
2024/02/03 10:18:02;;;;;;;1.10;1.00;;;;;;;9.55;100.00;101515.38;4985199;28;20038;-81
2024/02/03 10:20:35;;;;;;;0.95;0.90;;;;;;;9.61;100.00;101509.03;4972041;28;20482;-80
2024/02/03 10:23:17;;;;;;;1.30;1.02;;;;;;;9.52;100.00;101504.00;5001028;28;20046;-80
2024/02/03 10:25:45;;;;;;;1.02;0.77;;;;;;;9.71;100.00;101526.44;4982193;28;20047;-79
2024/02/03 10:28:18;;;;;;;1.40;1.10;;;;;;;9.70;100.00;101517.63;4987367;28;20119;-78
2024/02/03 10:30:45;;;;;;;1.30;0.98;;;;;;;9.64;100.00;101530.13;4955531;28;20142;-80
2024/02/03 10:33:15;;;;;;;1.33;1.20;;;;;;;9.68;100.00;101537.94;4961538;28;20047;-80
2024/02/03 10:35:45;;;;;;;0.70;0.70;;;;;;;9.72;100.00;101517.59;4967709;28;20050;-79
2024/02/03 10:38:14;;;;;;;1.80;1.20;;;;;;;9.88;100.00;101526.88;4985540;28;20047;-80
2024/02/03 10:40:42;;;;;;;1.60;1.17;;;;;;;9.90;100.00;101516.25;4957797;28;20075;-79
2024/02/03 10:43:16;;;;;;;1.75;1.65;;;;;;;10.03;100.00;101523.81;4949549;28;20047;-80
2024/02/03 10:45:46;;;;;;;1.50;1.40;;;;;;;9.55;100.00;101456.31;4982046;28;20519;-80
2024/02/03 10:48:21;;;;;;;1.30;1.20;;;;;;;9.88;100.00;101503.06;4976088;28;20129;-81
2024/02/03 10:50:54;;;;;;;2.30;1.08;;;;;;;10.04;100.00;101532.63;4988889;28;20058;-79
2024/02/03 10:53:29;;;;;;;1.60;1.20;;;;;;;10.03;100.00;101525.59;4966033;28;20054;-81
2024/02/03 10:56:03;;;;;;;1.10;1.00;;;;;;;10.06;100.00;101523.75;4987687;28;20506;-80
2024/02/03 10:58:34;;;;;;;3.95;3.03;;;;;;;10.22;100.00;101523.34;4974361;28;20111;-80
2024/02/03 11:01:13;;;;;;;3.67;1.70;;;;;;;10.25;100.00;101510.00;4989944;28;20453;-81
2024/02/03 11:03:44;;;;;;;1.30;1.20;;;;;;;10.19;100.00;101527.81;4967505;28;20046;-82
2024/02/03 11:06:13;;;;;;;1.88;1.40;;;;;;;9.64;100.00;101438.44;4981824;28;20134;-79
2024/02/03 11:08:42;;;;;;;1.75;1.60;;;;;;;9.87;100.00;101466.06;4988242;28;20491;-81
2024/02/03 11:11:12;;;;;;;3.17;2.42;;;;;;;10.22;100.00;101513.63;4988742;28;20057;-80
2024/02/03 11:13:41;;;;;;;4.82;2.80;;;;;;;9.94;100.00;101465.84;4964141;28;20042;-80
2024/02/03 11:16:10;;;;;;;1.80;1.50;;;;;;;10.32;100.00;101520.41;4988242;28;20051;-81
2024/02/03 11:18:42;;;;;;;1.95;1.70;;;;;;;10.33;100.00;101514.19;4972198;28;20054;-80
2024/02/03 11:21:10;;;;;;;1.77;1.30;;;;;;;10.35;100.00;101512.38;4972673;28;20062;-81
2024/02/03 11:23:38;;;;;;;1.50;1.20;;;;;;;10.10;100.00;101453.91;4965490;28;20046;-80
2024/02/03 11:26:07;;;;;;;1.92;1.35;;;;;;;10.60;100.00;101514.31;4988734;28;20116;-82
2024/02/03 11:28:36;;;;;;;2.13;1.50;;;;;;;10.71;100.00;101515.72;4954479;28;20149;-80
2024/02/03 11:31:05;;;;;;;5.68;5.05;;;;;;;10.75;100.00;101503.25;4966443;28;20512;-80
2024/02/03 11:33:44;;;;;;;3.58;2.45;;;;;;;10.78;100.00;101513.78;4975573;28;20786;-81
2024/02/03 11:36:13;;;;;;;4.30;2.38;;;;;;;10.71;100.00;101505.13;4970553;28;20406;-80
2024/02/03 11:38:46;;;;;;;3.77;2.20;;;;;;;10.71;100.00;101499.81;4987083;28;20050;-83
2024/02/03 11:41:18;;;;;;;2.97;1.95;;;;;;;10.80;100.00;101506.66;4968803;28;20517;-81
2024/02/03 11:43:47;;;;;;;2.83;1.88;;;;;;;10.92;100.00;101511.56;4954579;28;20106;-80
2024/02/03 11:46:15;;;;;;;4.57;3.08;;;;;;;10.96;100.00;101507.03;4967525;28;20518;-77
2024/02/03 11:48:45;;;;;;;3.10;1.83;;;;;;;11.07;100.00;101507.56;4968880;28;20058;-78
2024/02/03 11:51:16;;;;;;;2.90;1.35;;;;;;;11.16;100.00;101494.03;4965514;28;20121;-79
2024/02/03 11:53:44;;;;;;;;;;;;;;;11.13;100.00;101494.13;4989686;28;20145;-79
2024/02/03 11:56:14;;;;;;;2.03;1.55;;;;;;;10.91;100.00;101472.72;4968455;28;19922;-79
2024/02/03 11:58:42;;;;;;;1.60;1.50;;;;;;;10.59;100.00;101411.91;4971985;28;20058;-80
2024/02/03 12:01:12;;;;;;;1.70;1.35;;;;;;;10.53;100.00;101410.34;4966718;28;20062;-80
2024/02/03 12:03:41;;;;;;;1.40;1.30;;;;;;;10.93;100.00;101485.94;4962877;28;20130;-80
2024/02/03 12:06:12;;;;;;;2.85;1.75;;;;;;;10.83;100.00;101480.94;4966687;28;20053;-80
2024/02/03 12:08:41;;;;;;;3.17;1.23;;;;;;;10.79;100.00;101496.97;4966834;28;20054;-81
2024/02/03 12:11:09;;;;;;;2.13;1.75;;;;;;;10.80;100.00;101485.44;4984532;28;20046;-80